Share

Alliance, NE

Alliance Municipal (KAIA) Elev 3930 ft | 42.06 °N, 102.80 °W | Change Station

Current weather conditions updated 15 minutes ago

Clear
Clear
43 °F
Feels Like 36 °F
N
15
Wind Variable Wind from SSE
Sunrise 6:06 AM
Sunset 7:36 PM
Moon Waning Gibbous

Today is forecast to be Much Warmer than yesterday.

Pressure 29.98 in
Visibility 10.0 miles
Clouds Clear
Windchill 36 °F
Dew Point 37 °F
Humidity 80%
Rainfall 0.00 in
Snow Depth Not available.
UV 0 out of 16
Pollen 9.10 out of 12
Air Quality Not available.
Flu Activity Sporadic
METAR KAIA 180553Z AUTO 16013KT 10SM CLR 06/03 A2996 RMK AO2 SLP152 T00610028 10122 20061 56012 $

More Conditions Fewer Conditions

Pressure 29.98 in
Visibility 10.0 miles
Clouds Clear
Windchill 36 °F
Dew Point 37 °F
Humidity 80%
Rainfall 0.00 in
Snow Depth Not available.
UV 0 out of 16
Pollen 9.10 out of 12
Air Quality Not available.
Flu Activity Sporadic
METAR KAIA 180553Z AUTO 16013KT 10SM CLR 06/03 A2996 RMK AO2 SLP152 T00610028 10122 20061 56012 $

More Conditions Fewer Conditions

10-Day Forecast

Almanac

Astronomy

Apr. 18, 2014 Rise Set
Actual Time 6:06 AM MDT 7:36 PM MDT
Civil Twilight 5:36 AM MDT 8:05 PM MDT
Nautical Twilight 5:01 AM MDT 8:41 PM MDT
Astronomical Twilight 4:24 AM MDT 9:18 PM MDT
Moon 11:26 PM MDT 8:27 AM MDT
Length of Visible Light 14h 28m
Length of Day
13h 30m
Tomorrow will be 2m 40s longer.
Waning Gibbous, 90% of the Moon is Illuminated
Today
Waning Gibbous
Apr 22
Last Quarter
Apr 29
New
May 6
First Quarter
May 14
Full

Today's Extremes

State Highs State Lows

Community

  • SUNRISE THROUGH THE TREES.
    SUNRISE THROUGH THE TREES.
  • Dog Wood Blossoms
    Dog Wood Blossoms
  • Morning Light
    Morning Light
  • New Day
    New Day
  • Lake Michigan Sunrise
    Lake Michigan Sunrise

WunderPhotos

Upload Photos

1,702,276 photos uploaded!

WunderBlogs® & News

Nearby

Snow Depth

Station Depth Elevation
No new snow has been reported.

Coastal Water Temperatures

Place Temperature
No Stations Reporting

Earthquake Activity

City Distance Mag. Time & Date
No recent earthquake activity has been reported nearby.
Minimum magnitude displayed is 2.5.

Nearby Weather Stations

Station Location Temp. Windchill Dew Point Humidity Wind Precip. Elev Updated Type
Panhandle Coop/Box Butte Co, Alliance, NE 43.2 °F 36 °F 38 °F 81% East  at  14.0 mph 0.00 in / hr 4124 ft 12:05 AM MDT Normal
Wayne Rd., Alliance, NE 46.0 °F 39 °F 38 °F 73% SSW  at  17.0 mph 0.00 in / hr 4078 ft 11:57 PM MDT Normal

Show More Stations Show Fewer Stations

What do you think?

We're not finished. Please let us know what you like, what you don't like, and what you are still missing.